KABI/ABI METAR and TAF weather

Enter ICAO airport designator
Station Type Date Time Source
KABI METAR 2019/11/18 13:52 UTC NOAA

KABI 181352Z 18003KT 10SM CLR 07/02 A3001 RMK AO2 SLP159 T00670022


Station Type Date Time Source
KABI Decoded METAR 2019/11/18 13:52 UTC NOAA

ABILENE REGIONAL AIRPORT, TX, United States (KABI) 32-25N 099-41W 548M
Nov 18, 2019 - 08:52 AM EST / 2019.11.18 1352 UTC
Wind: from the S (180 degrees) at 3 MPH (3 KT):0
Visibility: 10 mile(s):0
Sky conditions: clear
Temperature: 44.1 F (6.7 C)
Dew Point: 36.0 F (2.2 C)
Relative Humidity: 72%
Pressure (altimeter): 30.01 in. Hg (1016 hPa)
ob: KABI 181352Z 18003KT 10SM CLR 07/02 A3001 RMK AO2 SLP159 T00670022
cycle: 14

Station Type Date Time Source
KABI TAF 2019/11/18 12:22 UTC NOAA

TAF KABI 181120Z 1812/1912 19008KT P6SM SKC
FM190000 17005KT P6SM SKC

Example: see airport list